Time;durP1;ratioP1;P1;durP2;ratioP2;P2;SDS_P1;SDS_P2;PMS_P1;PMS_P2;Temp;Humidity;BMP_temperature;BMP_pressure;BME280_temperature;BME280_humidity;BME280_pressure;Samples;Min_cycle;Max_cycle;Signal;HPM_P1;HPM_P2
2022/04/15 00:02:19;;;;;;;56.55;33.58;;;;;;;10.34;85.95;100024.91;4988074;28;20042;-53
2022/04/15 00:04:44;;;;;;;55.50;33.85;;;;;;;10.61;84.83;100033.50;4992806;28;20045;-54
2022/04/15 00:07:10;;;;;;;63.03;34.38;;;;;;;10.93;84.56;100042.22;4990663;28;20432;-54
2022/04/15 00:09:36;;;;;;;60.72;33.58;;;;;;;10.78;83.83;100036.38;4993355;28;20029;-53
2022/04/15 00:12:06;;;;;;;65.95;35.25;;;;;;;10.60;84.22;100039.06;4992573;28;20419;-54
2022/04/15 00:14:33;;;;;;;59.65;32.58;;;;;;;10.37;84.01;100040.53;4993016;28;20065;-52
2022/04/15 00:16:58;;;;;;;60.35;33.00;;;;;;;10.12;85.80;100033.31;4988322;28;20042;-52
2022/04/15 00:19:23;;;;;;;52.05;29.27;;;;;;;9.69;87.93;100028.72;4991748;28;20100;-54
2022/04/15 00:21:50;;;;;;;54.90;30.40;;;;;;;9.59;88.58;100033.72;4994493;28;20825;-52
2022/04/15 00:24:15;;;;;;;58.03;33.45;;;;;;;9.76;89.38;100035.88;4986879;28;20041;-52
2022/04/15 00:26:40;;;;;;;68.78;37.10;;;;;;;9.79;87.95;100038.13;4990536;28;20047;-51
2022/04/15 00:29:06;;;;;;;57.42;32.55;;;;;;;9.75;89.19;100042.28;4993482;28;20058;-51
2022/04/15 00:31:32;;;;;;;69.13;36.05;;;;;;;9.72;88.06;100049.69;4987859;28;20401;-55
2022/04/15 00:33:58;;;;;;;67.30;35.72;;;;;;;9.53;87.96;100039.94;4987253;28;20037;-53
2022/04/15 00:36:23;;;;;;;73.13;36.40;;;;;;;9.44;88.88;100042.06;4987262;28;20038;-53
2022/04/15 00:38:49;;;;;;;73.07;39.42;;;;;;;9.62;89.29;100038.66;4987647;28;20034;-52
2022/04/15 00:41:15;;;;;;;63.28;36.08;;;;;;;9.60;89.27;100043.38;4996878;28;20046;-52
2022/04/15 00:43:40;;;;;;;72.53;38.10;;;;;;;9.55;89.20;100042.41;4998961;28;20096;-53
2022/04/15 00:46:07;;;;;;;75.05;39.00;;;;;;;9.68;89.67;100031.59;4997966;28;20046;-52
2022/04/15 00:48:33;;;;;;;63.58;34.08;;;;;;;9.44;88.64;100039.38;4997434;28;20053;-50
2022/04/15 00:50:58;;;;;;;65.82;34.10;;;;;;;9.25;88.69;100041.13;4991615;28;20412;-52
2022/04/15 00:53:24;;;;;;;68.75;37.72;;;;;;;9.27;91.52;100041.72;4986602;28;20026;-53
2022/04/15 00:55:53;;;;;;;69.80;37.72;;;;;;;9.10;91.03;100045.94;4986882;28;20097;-54
2022/04/15 00:58:18;;;;;;;67.00;36.35;;;;;;;9.11;90.52;100042.25;4999953;28;20031;-54
2022/04/15 01:00:43;;;;;;;78.20;39.75;;;;;;;9.00;91.35;100034.88;4999373;28;20459;-52
2022/04/15 01:03:09;;;;;;;73.43;38.70;;;;;;;8.96;91.58;100039.00;4974794;28;20034;-51
2022/04/15 01:05:35;;;;;;;67.63;37.50;;;;;;;9.05;92.08;100045.75;4994836;28;20046;-54
2022/04/15 01:08:02;;;;;;;69.13;37.97;;;;;;;8.96;91.58;100049.69;4994092;28;20034;-53
2022/04/15 01:10:27;;;;;;;79.63;39.00;;;;;;;9.02;91.16;100044.31;4993191;28;20066;-54
2022/04/15 01:12:54;;;;;;;74.22;40.65;;;;;;;8.99;91.76;100043.94;4996176;28;20445;-52
2022/04/15 01:15:21;;;;;;;75.22;37.58;;;;;;;9.00;93.09;100045.56;4996731;28;20069;-53
2022/04/15 01:17:46;;;;;;;78.65;40.33;;;;;;;8.98;92.87;100047.63;4990235;28;20086;-54
2022/04/15 01:20:12;;;;;;;73.85;38.67;;;;;;;9.08;91.94;100048.00;4990545;28;20023;-51
2022/04/15 01:23:03;;;;;;;72.72;38.53;;;;;;;8.97;91.75;100038.78;4997496;28;20370;-53
2022/04/15 01:25:28;;;;;;;86.70;42.78;;;;;;;8.97;92.57;100048.66;4996208;28;20041;-53
2022/04/15 01:27:54;;;;;;;82.88;41.03;;;;;;;8.83;92.25;100051.38;4996877;28;20052;-54
2022/04/15 01:30:20;;;;;;;81.97;42.35;;;;;;;8.74;93.08;100052.66;4972511;28;20050;-54
2022/04/15 01:32:46;;;;;;;74.03;38.50;;;;;;;8.61;92.44;100056.19;4991335;28;20498;-54
2022/04/15 01:35:12;;;;;;;70.10;39.88;;;;;;;8.46;93.29;100050.22;4997860;28;20034;-52
2022/04/15 01:37:38;;;;;;;80.57;41.58;;;;;;;8.42;93.66;100057.84;4999762;28;20037;-51
2022/04/15 01:40:04;;;;;;;80.20;39.78;;;;;;;8.18;94.62;100059.28;4996372;28;20058;-53
2022/04/15 01:42:29;;;;;;;78.07;42.03;;;;;;;8.33;95.93;100056.38;4998409;28;20034;-55
2022/04/15 01:44:55;;;;;;;85.07;43.30;;;;;;;8.38;95.08;100063.78;4995268;28;20057;-53
2022/04/15 01:47:20;;;;;;;85.38;42.13;;;;;;;8.55;95.34;100058.88;4993904;28;20047;-54
2022/04/15 01:49:46;;;;;;;81.78;41.90;;;;;;;8.70;95.32;100062.13;4973394;28;20464;-53
2022/04/15 01:52:11;;;;;;;78.35;41.40;;;;;;;8.53;93.41;100067.06;4996710;28;20058;-53
2022/04/15 01:54:36;;;;;;;84.00;41.50;;;;;;;8.47;95.90;100067.09;4995594;28;20030;-53
2022/04/15 01:57:02;;;;;;;81.85;41.70;;;;;;;8.72;94.86;100069.94;4993438;28;20038;-54
2022/04/15 01:59:28;;;;;;;82.35;41.00;;;;;;;8.66;92.73;100071.56;4991396;28;20034;-54
2022/04/15 02:01:54;;;;;;;78.82;40.00;;;;;;;8.50;94.00;100066.69;4996073;28;20046;-51
2022/04/15 02:04:23;;;;;;;82.53;42.33;;;;;;;8.37;95.52;100072.84;4996756;28;20061;-54
2022/04/15 02:06:49;;;;;;;79.88;38.65;;;;;;;7.93;93.68;100067.09;4989516;28;20038;-53
2022/04/15 02:09:14;;;;;;;74.47;39.25;;;;;;;7.81;95.02;100067.91;4990272;28;20037;-52
2022/04/15 02:11:40;;;;;;;71.25;38.25;;;;;;;7.98;96.31;100075.28;4991674;28;20054;-51
2022/04/15 02:14:06;;;;;;;89.60;43.42;;;;;;;7.97;96.78;100076.34;4990930;28;20034;-53
2022/04/15 02:16:32;;;;;;;84.70;42.50;;;;;;;7.96;96.01;100071.19;4989968;28;20145;-53
2022/04/15 02:18:57;;;;;;;80.00;42.65;;;;;;;8.09;96.82;100073.06;4995159;28;20038;-52
2022/04/15 02:21:23;;;;;;;75.13;39.20;;;;;;;8.09;96.34;100076.56;4994951;28;20516;-51
2022/04/15 02:23:48;;;;;;;80.03;41.58;;;;;;;7.92;95.45;100076.13;4995750;28;20029;-54
2022/04/15 02:26:14;;;;;;;75.07;40.45;;;;;;;7.87;95.76;100078.59;4994551;28;20046;-54
2022/04/15 02:28:39;;;;;;;88.38;41.90;;;;;;;8.10;97.33;100077.38;4973313;28;20034;-53
2022/04/15 02:31:05;;;;;;;107.70;45.88;;;;;;;8.35;97.08;100081.06;4990001;28;20053;-53
2022/04/15 02:33:30;;;;;;;91.03;43.60;;;;;;;8.57;95.42;100078.19;4988854;28;20081;-54
2022/04/15 02:35:56;;;;;;;76.88;38.50;;;;;;;8.60;95.11;100081.25;4999716;28;20507;-53
2022/04/15 02:38:21;;;;;;;81.07;40.72;;;;;;;8.74;93.15;100082.06;4999525;28;20017;-52
2022/04/15 02:40:50;;;;;;;90.55;43.00;;;;;;;8.74;93.87;100087.41;4994320;28;20045;-51
2022/04/15 02:43:15;;;;;;;85.18;41.30;;;;;;;8.91;94.09;100084.25;4988626;28;20026;-53
2022/04/15 02:45:41;;;;;;;72.15;38.35;;;;;;;8.68;91.63;100085.56;4995442;28;20123;-53
2022/04/15 02:48:07;;;;;;;78.95;38.35;;;;;;;8.78;93.02;100085.94;5000897;28;20061;-53
2022/04/15 02:50:32;;;;;;;87.65;41.28;;;;;;;8.99;92.65;100094.75;4995055;28;20046;-53
2022/04/15 02:52:59;;;;;;;80.53;41.00;;;;;;;9.07;91.52;100089.16;4996697;28;20505;-51
2022/04/15 02:55:25;;;;;;;78.25;37.92;;;;;;;9.14;90.94;100092.63;4989392;28;20057;-51
2022/04/15 02:57:50;;;;;;;74.55;38.47;;;;;;;9.14;91.33;100100.66;5000883;28;20033;-52
2022/04/15 03:00:16;;;;;;;73.05;38.92;;;;;;;9.16;91.01;100101.25;4995879;28;20030;-53
2022/04/15 03:02:41;;;;;;;76.70;36.72;;;;;;;9.10;90.77;100099.41;4989118;28;20026;-53
2022/04/15 03:05:09;;;;;;;74.70;36.95;;;;;;;9.10;90.22;100094.06;4994575;28;20041;-50
2022/04/15 03:07:35;;;;;;;71.32;37.35;;;;;;;9.12;91.00;100102.72;4993039;28;20165;-53
2022/04/15 03:10:00;;;;;;;78.05;38.85;;;;;;;9.15;90.29;100102.28;4988234;28;20576;-53
2022/04/15 03:12:26;;;;;;;73.05;38.67;;;;;;;9.09;90.32;100103.13;4996798;28;20329;-53
2022/04/15 03:14:51;;;;;;;76.93;38.50;;;;;;;8.95;90.98;100101.53;4995135;28;20030;-53
2022/04/15 03:17:17;;;;;;;68.57;36.78;;;;;;;8.93;92.03;100098.25;4993774;28;20045;-53
2022/04/15 03:19:42;;;;;;;77.93;36.88;;;;;;;8.59;91.26;100102.84;4988197;28;20133;-51
2022/04/15 03:22:07;;;;;;;69.95;35.90;;;;;;;8.33;92.02;100098.31;4994415;28;20041;-53
2022/04/15 03:24:33;;;;;;;68.78;34.90;;;;;;;8.28;91.11;100096.25;4989258;28;20485;-53
2022/04/15 03:26:58;;;;;;;66.10;36.95;;;;;;;8.23;93.45;100103.25;4992510;28;20062;-53
2022/04/15 03:29:24;;;;;;;71.68;37.25;;;;;;;8.17;94.44;100104.91;4992014;28;20397;-53
2022/04/15 03:32:00;;;;;;;77.00;37.78;;;;;;;8.25;94.13;100102.00;4992546;28;20505;-52
2022/04/15 03:34:29;;;;;;;81.75;39.22;;;;;;;8.17;94.26;100104.91;4990479;28;20475;-50
2022/04/15 03:36:54;;;;;;;93.65;40.70;;;;;;;8.42;93.89;100107.81;4998282;28;20049;-51
2022/04/15 03:39:20;;;;;;;90.15;41.75;;;;;;;8.49;94.27;100107.81;4990001;28;20069;-56
2022/04/15 03:41:45;;;;;;;74.82;38.03;;;;;;;8.49;93.03;100097.13;4987688;28;20039;-53
2022/04/15 03:44:10;;;;;;;74.28;37.58;;;;;;;8.43;91.74;100106.75;4989181;28;20026;-52
2022/04/15 03:46:38;;;;;;;79.90;38.75;;;;;;;8.55;92.68;100110.44;4988012;28;20049;-52
2022/04/15 03:49:04;;;;;;;78.22;37.40;;;;;;;8.76;93.96;100109.41;4988855;28;20417;-50
2022/04/15 03:51:29;;;;;;;75.88;36.95;;;;;;;8.84;93.48;100111.84;4992538;28;20438;-53
2022/04/15 03:53:55;;;;;;;77.45;40.17;;;;;;;8.81;91.85;100117.63;4998256;28;20044;-53
2022/04/15 03:56:20;;;;;;;77.32;39.45;;;;;;;8.87;91.04;100112.47;4999534;28;20050;-51
2022/04/15 03:58:46;;;;;;;76.75;37.38;;;;;;;8.90;91.26;100122.72;4993819;28;20492;-51
2022/04/15 04:01:11;;;;;;;80.88;39.28;;;;;;;8.94;90.75;100121.28;4992706;28;20380;-50
2022/04/15 04:03:37;;;;;;;75.65;38.53;;;;;;;8.89;90.89;100124.59;4989009;28;20321;-52
2022/04/15 04:06:02;;;;;;;68.82;37.42;;;;;;;8.92;89.94;100118.00;4985855;28;20101;-51
2022/04/15 04:08:28;;;;;;;80.68;38.58;;;;;;;8.92;90.86;100118.00;4991486;28;20089;-52
2022/04/15 04:10:54;;;;;;;80.43;39.80;;;;;;;8.94;90.70;100122.09;4992190;28;20053;-52
2022/04/15 04:13:19;;;;;;;76.53;38.72;;;;;;;8.91;90.70;100121.69;4995942;28;20066;-53
2022/04/15 04:15:45;;;;;;;78.05;38.40;;;;;;;8.93;91.16;100116.94;4971910;28;20441;-51
2022/04/15 04:18:13;;;;;;;75.10;38.55;;;;;;;8.90;91.79;100120.88;4989691;28;20034;-52
2022/04/15 04:20:39;;;;;;;68.63;37.30;;;;;;;8.97;91.02;100115.50;4987761;28;20038;-50
2022/04/15 04:23:04;;;;;;;87.15;40.75;;;;;;;8.96;90.84;100113.84;4991259;28;20477;-53
2022/04/15 04:25:30;;;;;;;79.03;39.38;;;;;;;8.91;90.54;100116.34;4994364;28;20046;-52
2022/04/15 04:27:55;;;;;;;86.70;40.53;;;;;;;8.93;90.55;100120.44;4994097;28;20549;-50
2022/04/15 04:30:20;;;;;;;72.35;39.63;;;;;;;8.65;90.27;100120.72;4986997;28;20101;-49
2022/04/15 04:32:52;;;;;;;68.60;37.35;;;;;;;8.44;90.23;100121.78;4993856;28;20041;-52
2022/04/15 04:35:18;;;;;;;76.97;39.15;;;;;;;8.16;92.64;100124.59;4999738;28;20409;-52
2022/04/15 04:37:44;;;;;;;74.65;37.35;;;;;;;8.15;92.21;100129.13;4977185;28;20167;-51
2022/04/15 04:40:10;;;;;;;71.38;36.47;;;;;;;8.08;92.11;100127.47;4995580;28;20034;-52
2022/04/15 04:42:35;;;;;;;73.35;38.45;;;;;;;7.96;92.41;100138.78;5002988;28;20018;-52
2022/04/15 04:45:01;;;;;;;70.32;37.05;;;;;;;7.90;93.61;100136.91;4990911;28;20088;-51
2022/04/15 04:47:27;;;;;;;70.63;37.10;;;;;;;7.57;94.61;100131.50;4998906;28;20030;-53
2022/04/15 04:49:52;;;;;;;80.40;38.00;;;;;;;7.83;95.25;100135.25;4987079;28;20041;-52
2022/04/15 04:52:18;;;;;;;76.72;37.88;;;;;;;7.90;94.58;100136.09;4997273;28;20046;-52
2022/04/15 04:54:44;;;;;;;80.95;39.58;;;;;;;8.23;93.85;100145.97;4999891;28;20038;-51
2022/04/15 04:57:09;;;;;;;74.28;40.03;;;;;;;8.22;92.32;100137.16;4997938;28;20396;-51
2022/04/15 04:59:35;;;;;;;73.25;37.58;;;;;;;8.50;90.95;100144.97;4991591;28;20026;-53
2022/04/15 05:02:00;;;;;;;69.88;36.53;;;;;;;9.01;88.80;100144.31;4995510;28;20464;-50
2022/04/15 05:04:26;;;;;;;76.47;37.67;;;;;;;9.39;88.31;100140.88;4993896;28;20023;-50
2022/04/15 05:06:52;;;;;;;68.63;35.65;;;;;;;10.25;81.38;100144.91;4997464;28;20112;-51
2022/04/15 05:09:17;;;;;;;65.05;33.28;;;;;;;9.67;82.31;100147.75;4991347;28;20042;-50
2022/04/15 05:11:43;;;;;;;63.15;34.85;;;;;;;9.90;84.24;100152.56;4991208;28;20781;-52
2022/04/15 05:14:08;;;;;;;59.53;33.13;;;;;;;10.84;79.66;100161.53;4991918;28;20034;-53
2022/04/15 05:16:34;;;;;;;63.22;34.17;;;;;;;11.34;75.67;100158.72;4990773;28;20038;-52
2022/04/15 05:18:59;;;;;;;57.70;30.35;;;;;;;11.28;74.64;100169.53;4991294;28;20030;-51
2022/04/15 05:21:24;;;;;;;51.33;29.23;;;;;;;11.79;71.09;100171.78;4990853;28;20096;-51
2022/04/15 05:23:50;;;;;;;49.95;27.80;;;;;;;11.47;74.61;100167.66;4999319;28;20056;-52
2022/04/15 05:26:15;;;;;;;52.53;30.38;;;;;;;11.94;73.13;100171.41;4997420;28;20043;-53
2022/04/15 05:28:41;;;;;;;55.40;30.45;;;;;;;12.90;70.89;100176.69;4999236;28;20053;-49
2022/04/15 05:31:07;;;;;;;50.17;30.02;;;;;;;13.92;66.21;100172.63;4995139;28;20085;-51
2022/04/15 05:33:33;;;;;;;51.20;28.83;;;;;;;14.16;63.98;100184.13;4991981;28;20038;-52
2022/04/15 05:35:58;;;;;;;47.22;28.85;;;;;;;14.35;62.81;100182.84;4990818;28;20053;-52
2022/04/15 05:38:24;;;;;;;45.65;28.13;;;;;;;15.28;59.76;100183.19;4995782;28;20076;-52
2022/04/15 05:40:49;;;;;;;54.08;28.52;;;;;;;16.78;55.92;100192.59;4989176;28;20046;-52
2022/04/15 05:43:15;;;;;;;42.25;26.98;;;;;;;16.61;56.50;100189.19;4982866;28;20046;-52
2022/04/15 05:45:40;;;;;;;43.22;25.77;;;;;;;16.34;55.47;100183.81;4995209;28;20092;-52
2022/04/15 05:48:06;;;;;;;43.42;26.88;;;;;;;17.11;55.12;100196.06;5001863;28;20038;-53
2022/04/15 05:50:31;;;;;;;39.88;24.98;;;;;;;18.25;51.45;100193.50;4990642;28;20450;-54
2022/04/15 05:52:57;;;;;;;41.85;25.30;;;;;;;19.99;47.34;100198.59;4990991;28;20054;-51
2022/04/15 05:55:22;;;;;;;33.22;23.05;;;;;;;18.82;48.86;100190.78;4994979;28;20053;-52
2022/04/15 05:57:48;;;;;;;35.10;23.60;;;;;;;19.82;46.90;100198.13;5005221;28;20057;-53
2022/04/15 06:00:13;;;;;;;33.17;24.23;;;;;;;18.47;50.17;100195.13;4992349;28;20037;-52
2022/04/15 06:02:39;;;;;;;36.35;24.38;;;;;;;18.68;49.59;100199.47;4991321;28;20030;-53
2022/04/15 06:05:05;;;;;;;37.33;22.98;;;;;;;18.51;50.52;100202.47;4996675;28;20042;-52
2022/04/15 06:07:30;;;;;;;36.10;23.08;;;;;;;18.79;49.98;100207.66;4990872;28;20030;-53
2022/04/15 06:09:56;;;;;;;37.38;24.33;;;;;;;18.58;50.32;100210.34;4994026;28;20041;-53
2022/04/15 06:12:22;;;;;;;178.93;111.85;;;;;;;17.36;53.69;100210.81;4996959;28;20042;-52
2022/04/15 06:14:50;;;;;;;52.47;37.10;;;;;;;17.71;53.55;100210.16;4990307;28;20088;-50
2022/04/15 06:17:22;;;;;;;34.58;25.65;;;;;;;18.43;51.35;100213.06;4998272;28;20061;-52
2022/04/15 06:19:48;;;;;;;40.08;31.23;;;;;;;20.08;46.73;100223.28;4990593;28;20045;-51
2022/04/15 06:22:13;;;;;;;40.53;24.95;;;;;;;20.68;45.34;100231.31;4994867;28;20047;-53
2022/04/15 06:24:42;;;;;;;35.63;23.55;;;;;;;20.72;44.76;100232.38;4998200;28;20076;-53
2022/04/15 06:27:07;;;;;;;32.45;22.63;;;;;;;20.97;44.07;100233.25;4971748;28;20093;-52
2022/04/15 06:29:33;;;;;;;34.58;23.77;;;;;;;19.31;47.95;100231.72;4994892;28;20533;-53
2022/04/15 06:31:58;;;;;;;30.63;22.42;;;;;;;19.84;47.57;100236.72;4989282;28;20440;-53
2022/04/15 06:34:24;;;;;;;32.13;23.17;;;;;;;20.56;45.59;100244.50;4997931;28;20026;-50
2022/04/15 06:36:49;;;;;;;30.15;21.92;;;;;;;21.47;44.19;100247.50;4996535;28;20398;-49
2022/04/15 06:39:14;;;;;;;36.00;22.02;;;;;;;20.94;44.59;100239.25;4997111;28;20052;-55
2022/04/15 06:41:49;;;;;;;29.02;22.08;;;;;;;20.07;45.97;100242.59;4993765;28;20039;-53
2022/04/15 06:44:14;;;;;;;34.78;22.05;;;;;;;20.10;46.62;100244.78;4984230;28;20069;-49
2022/04/15 06:46:40;;;;;;;31.92;22.50;;;;;;;19.31;47.94;100242.59;4993428;28;20046;-50
2022/04/15 06:49:06;;;;;;;33.80;23.30;;;;;;;19.72;47.78;100241.69;4992873;28;20038;-49
2022/04/15 06:51:32;;;;;;;30.10;19.88;;;;;;;20.17;47.27;100246.09;4992137;28;20099;-52
2022/04/15 06:53:57;;;;;;;35.15;21.98;;;;;;;21.98;42.63;100241.38;4992064;28;20037;-51
2022/04/15 06:56:22;;;;;;;29.10;20.67;;;;;;;20.77;44.54;100251.41;4992408;28;20042;-52
2022/04/15 06:58:48;;;;;;;30.08;19.50;;;;;;;22.22;43.32;100246.81;4987155;28;20382;-52
2022/04/15 07:01:14;;;;;;;29.20;20.15;;;;;;;21.22;45.48;100252.09;4990945;28;20116;-52
2022/04/15 07:03:41;;;;;;;34.58;20.42;;;;;;;21.80;43.74;100250.38;4999034;28;20378;-52
2022/04/15 07:06:06;;;;;;;33.47;22.25;;;;;;;21.36;44.42;100251.38;4994526;28;20046;-52
2022/04/15 07:08:31;;;;;;;32.72;21.33;;;;;;;20.17;47.22;100256.16;4999658;28;20439;-52
2022/04/15 07:10:57;;;;;;;32.78;21.25;;;;;;;20.22;46.69;100256.13;5000495;28;20550;-52
2022/04/15 07:13:22;;;;;;;33.95;21.33;;;;;;;18.70;50.74;100253.53;4988881;28;20370;-54
2022/04/15 07:15:50;;;;;;;38.92;21.15;;;;;;;17.93;52.39;100256.09;4990673;28;20072;-53
2022/04/15 07:18:16;;;;;;;34.28;21.98;;;;;;;19.55;49.20;100250.16;4998232;28;20023;-54
2022/04/15 07:20:41;;;;;;;32.92;20.27;;;;;;;20.09;48.14;100254.03;4992931;28;20050;-53
2022/04/15 07:23:07;;;;;;;32.25;21.17;;;;;;;18.47;52.01;100260.28;4994713;28;20508;-53
2022/04/15 07:25:34;;;;;;;31.38;20.65;;;;;;;19.03;51.53;100249.47;4989084;28;20046;-53
2022/04/15 07:28:00;;;;;;;32.35;20.80;;;;;;;20.37;48.02;100261.47;4995070;28;20084;-51
2022/04/15 07:30:27;;;;;;;33.60;19.83;;;;;;;20.73;47.88;100261.25;4991700;28;20058;-53
2022/04/15 07:32:52;;;;;;;31.83;20.45;;;;;;;19.53;48.86;100258.59;4991710;28;21666;-52
2022/04/15 07:35:18;;;;;;;32.70;20.75;;;;;;;18.58;52.42;100261.13;4993814;28;20033;-53
2022/04/15 07:37:43;;;;;;;32.38;19.98;;;;;;;17.55;53.97;100268.09;4994851;28;20018;-52
2022/04/15 07:40:10;;;;;;;32.58;20.70;;;;;;;17.28;55.82;100260.91;4992060;28;20030;-52
2022/04/15 07:42:36;;;;;;;36.88;20.25;;;;;;;16.17;58.60;100276.72;4994140;28;20034;-54
2022/04/15 07:45:01;;;;;;;34.08;19.05;;;;;;;16.78;56.82;100273.00;4993419;28;20034;-52
2022/04/15 07:47:27;;;;;;;30.50;18.48;;;;;;;18.58;52.76;100272.78;4991039;28;20026;-51
2022/04/15 07:49:52;;;;;;;28.77;17.83;;;;;;;18.13;54.07;100274.34;4995901;28;20026;-52
2022/04/15 07:52:18;;;;;;;28.42;17.58;;;;;;;18.43;52.05;100270.06;4988503;28;20049;-52
2022/04/15 07:54:43;;;;;;;34.35;17.15;;;;;;;17.61;55.25;100275.16;4993162;28;20033;-53
2022/04/15 07:57:09;;;;;;;30.02;16.80;;;;;;;19.29;50.88;100271.94;4997863;28;20029;-52
2022/04/15 07:59:34;;;;;;;31.67;17.90;;;;;;;19.55;49.58;100277.34;5001136;28;20045;-53
2022/04/15 08:02:00;;;;;;;27.13;18.02;;;;;;;19.54;50.44;100283.84;5000552;28;20440;-51
2022/04/15 08:04:26;;;;;;;30.00;18.08;;;;;;;17.50;53.89;100278.91;5000136;28;20084;-54
2022/04/15 08:06:52;;;;;;;25.58;16.67;;;;;;;17.26;55.04;100273.88;4998852;28;20037;-50
2022/04/15 08:09:17;;;;;;;22.52;14.30;;;;;;;17.17;54.24;100289.84;5001685;28;21259;-51
2022/04/15 08:11:43;;;;;;;23.58;13.98;;;;;;;16.29;57.03;100281.16;5001859;28;20043;-53
2022/04/15 08:14:08;;;;;;;19.83;13.02;;;;;;;17.72;54.37;100282.25;4998408;28;20421;-54
2022/04/15 08:16:34;;;;;;;21.17;11.18;;;;;;;18.84;51.73;100289.13;4990767;28;20532;-53
2022/04/15 08:18:59;;;;;;;18.60;9.38;;;;;;;18.21;51.18;100286.56;5000229;28;20037;-52
2022/04/15 08:21:25;;;;;;;14.00;7.22;;;;;;;15.95;55.53;100284.03;5001616;28;20041;-51
2022/04/15 08:23:50;;;;;;;13.48;6.15;;;;;;;17.47;52.40;100282.94;5001487;28;20020;-55
2022/04/15 08:26:15;;;;;;;11.07;5.97;;;;;;;17.49;51.22;100282.69;5002842;28;20041;-53
2022/04/15 08:28:41;;;;;;;17.98;6.28;;;;;;;17.35;51.49;100282.34;5002830;28;20026;-54
2022/04/15 08:31:07;;;;;;;18.13;7.68;;;;;;;18.07;50.66;100283.53;4999691;28;20062;-50
2022/04/15 08:33:34;;;;;;;15.13;7.28;;;;;;;17.88;51.01;100281.28;4998540;28;20065;-53
2022/04/15 08:35:59;;;;;;;14.30;7.93;;;;;;;17.81;50.56;100283.44;4999489;28;20066;-54
2022/04/15 08:38:24;;;;;;;14.82;7.00;;;;;;;18.38;50.90;100291.75;4999758;28;20033;-53
2022/04/15 08:40:51;;;;;;;13.93;5.82;;;;;;;16.81;52.62;100292.25;4992882;28;20485;-52
2022/04/15 08:43:16;;;;;;;14.38;7.10;;;;;;;17.08;51.79;100296.78;4996032;28;20034;-54
2022/04/15 08:45:42;;;;;;;20.52;8.27;;;;;;;17.20;52.04;100305.56;4990347;28;20053;-54
2022/04/15 08:48:08;;;;;;;18.92;9.25;;;;;;;17.35;52.06;100298.63;4969989;28;20631;-52
2022/04/15 08:50:34;;;;;;;17.33;11.02;;;;;;;16.49;54.49;100300.28;4994017;28;20564;-52
2022/04/15 08:53:00;;;;;;;22.63;10.48;;;;;;;16.21;55.22;100297.84;4996005;28;20049;-52
2022/04/15 08:55:27;;;;;;;17.67;10.30;;;;;;;17.56;53.04;100307.69;4989607;28;20046;-53
2022/04/15 08:57:53;;;;;;;20.13;10.80;;;;;;;15.88;56.30;100313.16;4990018;28;20040;-55
2022/04/15 09:00:19;;;;;;;18.77;10.60;;;;;;;16.36;55.47;100314.25;4995679;28;20029;-53
2022/04/15 09:02:45;;;;;;;21.35;11.35;;;;;;;17.69;52.16;100305.28;4993823;28;20034;-54
2022/04/15 09:05:10;;;;;;;18.08;10.45;;;;;;;18.19;51.03;100305.81;4999234;28;20029;-51
2022/04/15 09:07:36;;;;;;;18.83;10.55;;;;;;;18.09;51.09;100308.47;4983645;28;20330;-52
2022/04/15 09:10:03;;;;;;;21.13;11.88;;;;;;;18.05;51.28;100307.41;4988710;28;20121;-49
2022/04/15 09:12:29;;;;;;;21.55;11.48;;;;;;;18.30;49.87;100306.66;4998780;28;20455;-50
2022/04/15 09:14:58;;;;;;;20.92;12.05;;;;;;;18.84;48.94;100308.94;4997572;28;20030;-51
2022/04/15 09:17:23;;;;;;;19.17;11.63;;;;;;;18.72;50.13;100305.63;5001198;28;20044;-52
2022/04/15 09:19:52;;;;;;;17.40;10.70;;;;;;;19.18;48.57;100313.84;4999163;28;20031;-54
2022/04/15 09:22:17;;;;;;;16.88;10.20;;;;;;;18.99;48.61;100310.03;4994164;28;20042;-54
2022/04/15 09:24:43;;;;;;;20.73;12.15;;;;;;;18.65;48.80;100307.81;4997960;28;20033;-52
2022/04/15 09:27:09;;;;;;;15.38;10.43;;;;;;;19.58;48.18;100314.84;5003029;28;20038;-54
2022/04/15 09:29:35;;;;;;;20.98;12.27;;;;;;;19.97;46.93;100315.03;4997891;28;20046;-53
2022/04/15 09:32:09;;;;;;;19.67;13.52;;;;;;;18.93;48.75;100314.66;4996658;28;20042;-53
2022/04/15 09:34:59;;;;;;;19.52;11.02;;;;;;;19.18;47.74;100322.00;4997583;28;20056;-54
2022/04/15 09:37:26;;;;;;;17.65;11.43;;;;;;;17.78;50.59;100318.38;4993313;28;20042;-50
2022/04/15 09:40:07;;;;;;;23.25;10.98;;;;;;;18.51;48.79;100331.94;4997613;28;20527;-52
2022/04/15 09:42:36;;;;;;;15.07;10.93;;;;;;;20.42;44.99;100324.06;4994899;28;20125;-52
2022/04/15 09:45:24;;;;;;;15.25;10.00;;;;;;;18.60;48.29;100324.13;4995943;28;20115;-54
2022/04/15 09:47:57;;;;;;;15.02;8.80;;;;;;;19.36;46.05;100318.69;4994277;28;20061;-54
2022/04/15 09:50:27;;;;;;;14.50;8.10;;;;;;;19.32;45.94;100319.50;4995317;28;20085;-53
2022/04/15 09:52:53;;;;;;;10.70;7.53;;;;;;;20.38;44.85;100328.44;5003610;28;20026;-52
2022/04/15 09:55:20;;;;;;;14.35;8.63;;;;;;;18.98;47.14;100330.97;4991547;28;20034;-51
2022/04/15 09:57:46;;;;;;;13.48;8.93;;;;;;;19.35;46.33;100319.00;4994519;28;20034;-53
2022/04/15 10:00:12;;;;;;;12.85;9.10;;;;;;;19.43;46.61;100315.69;4993716;28;20468;-54
2022/04/15 10:02:38;;;;;;;14.75;8.63;;;;;;;19.24;46.82;100322.78;4998355;28;20034;-52
2022/04/15 10:05:04;;;;;;;14.32;9.88;;;;;;;19.78;46.06;100322.19;4988453;28;20053;-53
2022/04/15 10:07:30;;;;;;;10.95;8.05;;;;;;;18.62;46.57;100306.47;4981077;28;21936;-53
2022/04/15 10:09:56;;;;;;;13.20;8.02;;;;;;;18.14;49.53;100310.41;4992284;28;20370;-52
2022/04/15 10:12:22;;;;;;;17.23;10.10;;;;;;;18.79;48.59;100322.50;4998881;28;20585;-53
2022/04/15 10:14:47;;;;;;;15.30;10.13;;;;;;;19.84;46.30;100312.88;4988550;28;20030;-53
2022/04/15 10:17:13;;;;;;;15.13;10.68;;;;;;;19.24;46.33;100317.34;4987650;28;20050;-53
2022/04/15 10:19:38;;;;;;;16.80;12.77;;;;;;;18.72;48.49;100317.34;4975926;28;20033;-53
2022/04/15 10:22:05;;;;;;;17.63;11.27;;;;;;;19.02;48.66;100313.03;4996056;28;20089;-52
2022/04/15 10:24:30;;;;;;;20.00;11.05;;;;;;;18.46;49.30;100319.19;4990996;28;20026;-54
2022/04/15 10:26:59;;;;;;;15.60;11.20;;;;;;;18.30;49.03;100309.38;4992513;28;20085;-52
2022/04/15 10:29:25;;;;;;;16.57;10.53;;;;;;;17.94;50.70;100311.94;4996104;28;20046;-52
2022/04/15 10:31:53;;;;;;;15.27;11.70;;;;;;;17.79;50.35;100309.97;4977351;28;20074;-52
2022/04/15 10:34:20;;;;;;;20.98;13.20;;;;;;;18.18;49.83;100312.31;4998406;28;20094;-52
2022/04/15 10:36:49;;;;;;;17.55;13.73;;;;;;;18.53;49.77;100310.78;4991942;28;20045;-53
2022/04/15 10:39:25;;;;;;;17.30;12.55;;;;;;;19.79;46.89;100312.91;4990061;28;20037;-52
2022/04/15 10:41:52;;;;;;;18.42;13.07;;;;;;;19.38;47.35;100307.56;5002533;28;20508;-53
2022/04/15 10:44:31;;;;;;;15.68;11.93;;;;;;;17.85;49.82;100305.44;4994164;28;20494;-54
2022/04/15 10:47:19;;;;;;;15.68;11.85;;;;;;;16.83;52.23;100305.53;4995808;28;20041;-53
2022/04/15 10:50:03;;;;;;;17.23;14.68;;;;;;;16.81;53.48;100307.66;4995586;28;20042;-53
2022/04/15 10:52:30;;;;;;;19.42;14.93;;;;;;;16.54;53.95;100308.47;4996950;28;20097;-53
2022/04/15 10:55:08;;;;;;;18.92;14.45;;;;;;;17.50;52.41;100312.25;4998107;28;20052;-51
2022/04/15 10:57:41;;;;;;;21.33;14.38;;;;;;;18.75;47.81;100294.25;5000198;28;20049;-51
2022/04/15 11:03:39;;;;;;;21.63;15.95;;;;;;;17.46;51.59;100303.81;4994185;28;20032;-51
2022/04/15 11:06:07;;;;;;;27.58;16.63;;;;;;;18.36;50.26;100297.44;4983570;28;20394;-51
2022/04/15 11:08:48;;;;;;;20.10;16.73;;;;;;;18.66;49.01;100296.69;4993974;28;20168;-55
2022/04/15 11:11:14;;;;;;;24.63;17.80;;;;;;;19.26;47.48;100299.69;5005089;28;20056;-53
2022/04/15 11:13:39;;;;;;;20.67;15.60;;;;;;;19.51;45.20;100303.44;5003030;28;20033;-53
2022/04/15 11:16:11;;;;;;;21.77;16.13;;;;;;;18.93;46.18;100295.66;5002819;28;20485;-52